createdAt,value
2023-12-10T00:04:41.205Z,0
2023-12-10T00:14:41.142Z,0
2023-12-10T00:24:41.166Z,0
2023-12-10T00:34:41.277Z,0
2023-12-10T00:44:41.137Z,0
2023-12-10T00:54:41.203Z,0
2023-12-10T01:04:41.194Z,0
2023-12-10T01:14:41.135Z,0
2023-12-10T01:24:41.150Z,0
2023-12-10T01:34:41.281Z,0
2023-12-10T01:44:41.133Z,0
2023-12-10T01:54:41.128Z,0
2023-12-10T02:04:41.136Z,0
2023-12-10T02:14:41.104Z,0
2023-12-10T02:24:41.110Z,0
2023-12-10T02:34:41.158Z,0
2023-12-10T02:44:41.083Z,0
2023-12-10T02:54:41.133Z,0
2023-12-10T03:04:41.086Z,0
2023-12-10T03:13:31.983Z,0.1
2023-12-10T03:16:04.645Z,0.2
2023-12-10T03:26:04.633Z,0.2
2023-12-10T03:36:04.628Z,0.2
2023-12-10T03:46:04.637Z,0.2
2023-12-10T03:46:30.133Z,0.3
2023-12-10T03:56:30.065Z,0.3
2023-12-10T04:06:30.062Z,0.3
2023-12-10T04:16:30.055Z,0.3
2023-12-10T04:26:30.012Z,0.3
2023-12-10T04:36:30.067Z,0.3
2023-12-10T04:46:30.020Z,0.3
2023-12-10T04:56:30.040Z,0.3
2023-12-10T05:06:30.029Z,0.3
2023-12-10T05:16:30.057Z,0.3
2023-12-10T05:26:29.988Z,0.3
2023-12-10T05:36:29.997Z,0.3
2023-12-10T05:46:29.984Z,0.3
2023-12-10T05:56:29.993Z,0.3
2023-12-10T06:06:29.995Z,0.3
2023-12-10T06:16:29.961Z,0.3
2023-12-10T06:26:29.971Z,0.3
2023-12-10T06:36:29.984Z,0.3
2023-12-10T06:46:29.954Z,0.3
2023-12-10T06:56:29.945Z,0.3
2023-12-10T07:06:29.963Z,0.3
2023-12-10T07:16:30.054Z,0.3
2023-12-10T07:24:54.862Z,0.4
2023-12-10T07:34:54.952Z,0.4
2023-12-10T07:44:54.818Z,0.4
2023-12-10T07:54:54.831Z,0.4
2023-12-10T08:04:54.839Z,0.4
2023-12-10T08:14:54.797Z,0.4
2023-12-10T08:24:54.808Z,0.4
2023-12-10T08:34:54.902Z,0.4
2023-12-10T08:44:54.769Z,0.4
2023-12-10T08:54:54.802Z,0.4
2023-12-10T09:04:54.783Z,0.4
2023-12-10T09:14:54.780Z,0.4
2023-12-10T09:24:54.804Z,0.4
2023-12-10T09:34:54.811Z,0.4
2023-12-10T09:54:54.777Z,0.4
2023-12-10T10:04:54.854Z,0.4
2023-12-10T10:24:54.736Z,0.4
2023-12-10T10:34:54.797Z,0.4
2023-12-10T10:44:54.715Z,0.4
2023-12-10T10:54:54.730Z,0.4
2023-12-10T11:04:54.762Z,0.4
2023-12-10T11:14:54.717Z,0.4
2023-12-10T11:24:54.785Z,0.4
2023-12-10T11:34:54.756Z,0.4
2023-12-10T11:44:54.718Z,0.4
2023-12-10T11:54:54.761Z,0.4
2023-12-10T12:04:54.811Z,0.4
2023-12-10T12:14:54.685Z,0.4
2023-12-10T12:24:54.791Z,0.4
2023-12-10T12:34:54.742Z,0.4
2023-12-10T12:44:56.023Z,0.4
2023-12-10T12:54:54.686Z,0.4
2023-12-10T13:04:58.597Z,0.4
2023-12-10T13:14:54.652Z,0.4
2023-12-10T13:24:54.730Z,0.4
2023-12-10T13:34:54.777Z,0.4
2023-12-10T13:44:54.650Z,0.4
2023-12-10T13:54:54.647Z,0.4
2023-12-10T14:04:54.710Z,0.4
2023-12-10T14:24:54.645Z,0.4
2023-12-10T14:34:54.701Z,0.4
2023-12-10T14:44:54.812Z,0.4
2023-12-10T14:54:54.630Z,0.4
2023-12-10T15:04:54.645Z,0.4
2023-12-10T15:14:54.649Z,0.4
2023-12-10T15:24:54.667Z,0.4
2023-12-10T15:34:54.629Z,0.4
2023-12-10T15:44:54.612Z,0.4
2023-12-10T15:54:54.622Z,0.4
2023-12-10T16:04:54.594Z,0.4
2023-12-10T16:14:54.594Z,0.4
2023-12-10T16:24:54.606Z,0.4
2023-12-10T16:34:54.620Z,0.4
2023-12-10T16:44:54.570Z,0.4
2023-12-10T16:54:54.624Z,0.4
2023-12-10T17:04:54.694Z,0.4
2023-12-10T17:14:54.556Z,0.4
2023-12-10T17:24:54.625Z,0.4
2023-12-10T17:34:54.617Z,0.4
2023-12-10T17:44:56.991Z,0.4
2023-12-10T17:54:54.569Z,0.4
2023-12-10T18:04:54.585Z,0.4
2023-12-10T18:14:54.543Z,0.4
2023-12-10T18:24:54.566Z,0.4
2023-12-10T18:34:54.523Z,0.4
2023-12-10T18:44:54.558Z,0.4
2023-12-10T18:54:54.532Z,0.4
2023-12-10T19:04:54.534Z,0.4
2023-12-10T19:14:54.501Z,0.4
2023-12-10T19:24:54.566Z,0.4
2023-12-10T19:34:54.494Z,0.4
2023-12-10T19:44:54.501Z,0.4
2023-12-10T19:54:54.561Z,0.4
2023-12-10T20:04:48.321Z,0.5
2023-12-10T20:07:48.557Z,0.6
2023-12-10T20:17:48.637Z,0.6
2023-12-10T20:27:48.506Z,0.6
2023-12-10T20:37:48.530Z,0.6
2023-12-10T20:47:48.526Z,0.6
2023-12-10T20:57:48.506Z,0.6
2023-12-10T21:07:48.499Z,0.6
2023-12-10T21:17:48.574Z,0.6
2023-12-10T21:27:48.477Z,0.6
2023-12-10T21:37:48.515Z,0.6
2023-12-10T21:47:48.568Z,0.6
2023-12-10T21:57:48.489Z,0.6
2023-12-10T22:07:48.472Z,0.6
2023-12-10T22:17:48.507Z,0.6
2023-12-10T22:27:48.457Z,0.6
2023-12-10T22:37:48.502Z,0.6
2023-12-10T22:47:48.497Z,0.6
2023-12-10T22:52:09.608Z,0.7
2023-12-10T23:02:09.657Z,0.7
2023-12-10T23:04:05.225Z,0
2023-12-10T23:12:09.610Z,0
2023-12-10T23:22:09.654Z,0
2023-12-10T23:32:09.638Z,0
2023-12-10T23:42:09.556Z,0
2023-12-10T23:52:09.601Z,0
